Time;durP1;ratioP1;P1;durP2;ratioP2;P2;SDS_P1;SDS_P2;PMS_P1;PMS_P2;Temp;Humidity;BMP_temperature;BMP_pressure;BME280_temperature;BME280_humidity;BME280_pressure;Samples;Min_cycle;Max_cycle;Signal;HPM_P1;HPM_P2
2023/10/09 00:02:09;;;;;;;16.73;3.33;;;15.20;75.30;;;;;;5089143;28;20730;-66
2023/10/09 00:04:38;;;;;;;8.80;1.98;;;15.20;55.70;;;;;;5089507;28;20394;-66
2023/10/09 00:07:07;;;;;;;8.60;2.50;;;15.20;1.00;;;;;;5089762;28;20385;-66
2023/10/09 00:09:46;;;;;;;18.23;2.60;;;15.10;1.00;;;;;;5088985;28;20417;-66
2023/10/09 00:12:28;;;;;;;14.50;2.88;;;15.10;99.90;;;;;;5089443;28;20881;-66
2023/10/09 00:15:07;;;;;;;11.18;2.58;;;15.10;99.90;;;;;;5090053;28;20856;-66
2023/10/09 00:17:32;;;;;;;10.73;2.80;;;15.10;66.10;;;;;;5089660;28;20427;-66
2023/10/09 00:19:59;;;;;;;14.43;3.70;;;15.00;99.90;;;;;;5089583;28;20409;-66
2023/10/09 00:22:26;;;;;;;11.88;2.70;;;14.90;99.90;;;;;;5089635;28;20458;-66
2023/10/09 00:25:10;;;;;;;10.10;3.20;;;14.80;1.00;;;;;;5089917;28;20419;-66
2023/10/09 00:27:42;;;;;;;8.05;2.20;;;14.80;99.90;;;;;;5089928;28;20769;-66
2023/10/09 00:30:18;;;;;;;10.93;2.23;;;14.80;1.00;;;;;;5089352;28;20415;-66
2023/10/09 00:32:54;;;;;;;10.90;2.90;;;14.80;1.00;;;;;;5089770;28;20417;-66
2023/10/09 00:38:49;;;;;;;18.13;2.67;;;14.80;1.00;;;;;;5088115;28;20384;-66
2023/10/09 00:41:01;;;;;;;8.43;2.28;;;14.80;99.90;;;;;;5079403;28;20433;-66
2023/10/09 00:43:29;;;;;;;9.45;2.22;;;14.90;99.90;;;;;;5088820;28;20465;-66
2023/10/09 00:45:55;;;;;;;10.13;2.20;;;14.90;99.90;;;;;;5088959;28;20390;-66
2023/10/09 00:48:31;;;;;;;18.63;2.90;;;14.90;99.90;;;;;;5089848;28;20520;-66
2023/10/09 00:51:00;;;;;;;14.40;2.63;;;14.90;99.90;;;;;;5069348;28;20499;-66
2023/10/09 00:53:33;;;;;;;6.85;2.33;;;14.90;99.90;;;;;;5068938;28;20387;-66
2023/10/09 00:56:05;;;;;;;12.18;3.15;;;15.00;99.90;;;;;;5080612;28;20397;-66
2023/10/09 00:58:35;;;;;;;12.40;3.37;;;15.10;99.90;;;;;;5088607;28;20435;-66
2023/10/09 01:01:04;;;;;;;8.05;2.40;;;15.10;1.00;;;;;;5089399;28;20832;-66
2023/10/09 01:03:33;;;;;;;10.82;2.35;;;15.00;1.00;;;;;;5089022;28;20397;-66
2023/10/09 01:06:26;;;;;;;17.80;3.80;;;15.10;1.00;;;;;;5088960;28;20775;-66
2023/10/09 01:09:08;;;;;;;13.17;3.10;;;15.20;1.00;;;;;;5088089;28;20382;-66
2023/10/09 01:11:34;;;;;;;9.35;2.78;;;15.20;1.00;;;;;;5088586;28;20392;-66
2023/10/09 01:16:34;;;;;;;11.10;2.13;;;15.30;1.00;;;;;;5090527;28;20852;-66
2023/10/09 01:19:06;;;;;;;10.00;2.40;;;15.40;1.00;;;;;;5105828;28;20401;-66
2023/10/09 01:21:31;;;;;;;9.50;2.70;;;15.30;1.00;;;;;;5091077;28;20509;-66
2023/10/09 01:24:18;;;;;;;10.60;3.10;;;15.30;1.00;;;;;;5093727;28;20481;-66
2023/10/09 01:26:46;;;;;;;12.25;3.00;;;15.30;1.00;;;;;;5092501;28;20390;-66
2023/10/09 01:29:19;;;;;;;13.32;3.28;;;15.30;65.60;;;;;;5092712;28;20485;-66
2023/10/09 01:32:00;;;;;;;14.20;3.22;;;15.00;1.00;;;;;;5092527;28;20429;-66
2023/10/09 01:34:41;;;;;;;12.45;2.80;;;15.00;1.00;;;;;;5092588;28;20453;-66
2023/10/09 01:37:15;;;;;;;10.33;2.50;;;15.10;1.00;;;;;;5092651;28;20412;-66
2023/10/09 01:39:42;;;;;;;9.87;2.83;;;15.00;99.90;;;;;;5091943;28;20465;-66
2023/10/09 01:42:09;;;;;;;12.02;3.05;;;15.00;25.60;;;;;;5092408;28;20442;-66
2023/10/09 01:44:35;;;;;;;10.20;2.25;;;15.10;99.90;;;;;;5092082;28;20378;-66
2023/10/09 01:47:07;;;;;;;11.43;2.70;;;15.20;99.90;;;;;;5092405;28;20408;-66
2023/10/09 01:49:41;;;;;;;9.23;2.70;;;15.20;99.90;;;;;;5092763;28;20879;-66
2023/10/09 01:52:10;;;;;;;14.68;3.28;;;15.20;99.90;;;;;;5092213;28;20452;-66
2023/10/09 01:54:37;;;;;;;10.50;2.88;;;15.20;99.90;;;;;;5092824;28;20782;-66
2023/10/09 01:57:23;;;;;;;11.02;2.35;;;15.30;1.00;;;;;;5091946;28;20402;-66
2023/10/09 01:59:53;;;;;;;9.47;2.90;;;15.40;1.00;;;;;;5090595;28;20417;-66
2023/10/09 02:02:26;;;;;;;8.88;3.08;;;15.30;1.00;;;;;;5094510;28;20390;-66
2023/10/09 02:05:05;;;;;;;10.05;2.70;;;15.30;1.00;;;;;;5096563;28;20412;-66
2023/10/09 02:07:40;;;;;;;11.70;2.58;;;15.40;1.00;;;;;;5095121;28;20437;-66
2023/10/09 02:10:21;;;;;;;7.82;3.03;;;15.50;1.00;;;;;;5096273;28;20390;-66
2023/10/09 02:12:50;;;;;;;17.52;2.60;;;15.50;1.00;;;;;;5093334;28;20794;-66
2023/10/09 02:15:40;;;;;;;11.45;3.05;;;15.60;99.90;;;;;;5093966;28;20677;-66
2023/10/09 02:18:16;;;;;;;12.88;3.00;;;15.60;99.90;;;;;;5092518;28;20480;-66
2023/10/09 02:20:41;;;;;;;8.67;2.33;;;15.80;99.90;;;;;;5093465;28;20452;-66
2023/10/09 02:23:13;;;;;;;12.52;2.70;;;15.70;99.90;;;;;;5094374;28;20382;-66
2023/10/09 02:25:44;;;;;;;12.70;2.37;;;15.70;99.90;;;;;;5094500;28;20406;-66
2023/10/09 02:28:19;;;;;;;8.60;2.33;;;15.70;99.90;;;;;;5094455;28;20374;-66
2023/10/09 02:30:48;;;;;;;12.13;2.10;;;15.80;99.90;;;;;;5077393;28;20394;-66
2023/10/09 02:33:27;;;;;;;10.85;2.90;;;15.80;99.90;;;;;;5088824;28;20401;-66
2023/10/09 02:35:54;;;;;;;7.50;2.63;;;15.80;1.00;;;;;;5090518;28;20402;-66
2023/10/09 02:38:23;;;;;;;9.60;2.30;;;15.90;1.00;;;;;;5093451;28;20389;-66
2023/10/09 02:43:44;;;;;;;13.02;3.20;;;15.60;1.00;;;;;;5091599;28;20426;-66
2023/10/09 02:46:17;;;;;;;11.25;2.78;;;15.50;99.90;;;;;;5090638;28;20435;-66
2023/10/09 02:48:45;;;;;;;12.85;2.90;;;15.60;1.00;;;;;;5090610;28;20393;-66
2023/10/09 02:51:30;;;;;;;7.50;2.05;;;15.60;39.40;;;;;;5087734;28;20402;-66
2023/10/09 02:53:57;;;;;;;9.07;2.80;;;15.60;1.00;;;;;;5088897;28;20801;-66
2023/10/09 02:56:24;;;;;;;6.30;2.00;;;15.50;1.00;;;;;;5091605;28;20396;-66
2023/10/09 02:58:51;;;;;;;15.88;2.80;;;15.60;1.00;;;;;;5093751;28;20386;-66
2023/10/09 03:01:16;;;;;;;12.95;2.50;;;15.70;1.00;;;;;;5090883;28;20409;-66
2023/10/09 03:03:46;;;;;;;11.07;2.43;;;15.70;1.00;;;;;;5090643;28;20737;-66
2023/10/09 03:06:13;;;;;;;8.23;2.22;;;15.80;1.00;;;;;;5087599;28;20394;-66
2023/10/09 03:08:42;;;;;;;8.60;2.90;;;15.70;1.00;;;;;;5090913;28;20389;-67
2023/10/09 03:11:13;;;;;;;9.30;2.00;;;15.70;1.00;;;;;;5090085;28;20493;-67
2023/10/09 03:13:43;;;;;;;13.73;3.30;;;15.60;99.90;;;;;;5090322;28;20378;-66
2023/10/09 03:16:14;;;;;;;8.80;2.67;;;15.60;99.90;;;;;;5090469;28;20394;-66
2023/10/09 03:18:39;;;;;;;11.40;2.43;;;15.80;99.90;;;;;;5089889;28;20400;-66
2023/10/09 03:21:06;;;;;;;16.13;2.00;;;15.90;99.90;;;;;;5089999;28;20888;-66
2023/10/09 03:23:32;;;;;;;13.55;2.55;;;15.90;99.90;;;;;;5074436;28;20467;-67
2023/10/09 03:25:58;;;;;;;11.05;3.20;;;15.90;99.90;;;;;;5090442;28;20803;-67
2023/10/09 03:28:24;;;;;;;11.87;2.73;;;15.90;99.90;;;;;;5087860;28;20394;-67
2023/10/09 03:30:50;;;;;;;11.23;3.28;;;16.00;99.90;;;;;;5091544;28;20405;-67
2023/10/09 03:33:17;;;;;;;12.33;2.80;;;15.90;99.90;;;;;;5089840;28;20410;-67
2023/10/09 03:35:42;;;;;;;10.20;2.10;;;15.90;99.90;;;;;;5089937;28;20406;-67
2023/10/09 03:38:18;;;;;;;11.90;2.50;;;16.00;99.90;;;;;;5090253;28;20440;-67
2023/10/09 03:40:47;;;;;;;8.50;1.98;;;16.00;99.90;;;;;;5089934;28;20811;-67
2023/10/09 03:43:14;;;;;;;11.35;3.30;;;16.00;99.90;;;;;;5090770;28;20879;-67
2023/10/09 03:45:46;;;;;;;10.35;2.45;;;16.00;1.00;;;;;;5089282;28;20393;-67
2023/10/09 03:48:31;;;;;;;11.25;2.85;;;15.90;1.00;;;;;;5089635;28;20921;-65
2023/10/09 03:51:08;;;;;;;11.18;2.70;;;15.70;91.80;;;;;;5089397;28;20399;-66
2023/10/09 03:53:42;;;;;;;10.43;2.70;;;15.60;99.90;;;;;;5091237;28;20876;-66
2023/10/09 03:56:12;;;;;;;8.85;2.72;;;15.60;1.00;;;;;;5102699;28;20773;-67
2023/10/09 03:58:42;;;;;;;14.40;3.03;;;15.70;99.90;;;;;;5092434;28;20390;-66
2023/10/09 04:04:23;;;;;;;12.97;3.27;;;15.80;99.90;;;;;;5519741;22;20615;-74
2023/10/09 04:06:49;;;;;;;8.05;2.22;;;15.70;99.90;;;;;;5025779;28;20427;-73
2023/10/09 04:11:43;;;;;;;10.60;3.57;;;15.60;1.00;;;;;;5035983;28;20403;-74
2023/10/09 04:14:19;;;;;;;12.45;3.10;;;15.60;1.00;;;;;;5029512;28;20395;-72
2023/10/09 04:16:51;;;;;;;7.25;2.33;;;15.40;1.00;;;;;;5029091;28;20418;-73
2023/10/09 04:19:21;;;;;;;9.13;2.00;;;15.10;99.90;;;;;;5028935;28;20418;-73
2023/10/09 04:21:48;;;;;;;7.60;2.43;;;15.00;99.90;;;;;;5029097;28;20415;-73
2023/10/09 04:26:44;;;;;;;10.13;2.77;;;14.90;99.90;;;;;;5023969;28;20434;-69
2023/10/09 04:29:18;;;;;;;8.93;2.42;;;14.90;1.00;;;;;;5014977;28;20441;-68
2023/10/09 04:31:51;;;;;;;11.60;2.67;;;14.90;1.00;;;;;;5025115;28;20892;-69
2023/10/09 04:40:59;;;;;;;11.85;2.45;;;15.10;99.90;;;;;;5015438;28;20432;-68
2023/10/09 04:42:59;;;;;;;12.23;3.47;;;15.10;1.00;;;;;;5010711;28;20504;-68
2023/10/09 04:48:09;;;;;;;10.32;2.95;;;15.10;99.90;;;;;;5014926;28;20498;-69
2023/10/09 04:55:57;;;;;;;10.10;2.80;;;15.10;99.90;;;;;;5030566;28;20968;-69
2023/10/09 04:58:26;;;;;;;13.90;2.67;;;15.00;1.00;;;;;;5032215;28;20403;-69
2023/10/09 05:03:28;;;;;;;9.55;2.50;;;15.10;1.00;;;;;;5022171;28;20403;-69
2023/10/09 05:05:59;;;;;;;8.60;3.13;;;15.10;99.90;;;;;;5027257;28;20454;-69
2023/10/09 05:08:29;;;;;;;9.27;2.88;;;15.10;1.00;;;;;;5028527;28;20403;-70
2023/10/09 05:16:13;;;;;;;9.15;2.97;;;15.30;99.90;;;;;;5031885;28;20410;-69
2023/10/09 05:18:41;;;;;;;14.90;3.20;;;15.40;20.90;;;;;;5033326;28;20776;-71
2023/10/09 05:23:48;;;;;;;10.05;3.30;;;15.50;1.00;;;;;;5032444;28;20399;-73
2023/10/09 05:28:58;;;;;;;13.90;3.20;;;15.40;99.90;;;;;;5033177;28;20756;-72
2023/10/09 05:31:44;;;;;;;9.93;3.20;;;15.40;99.90;;;;;;5032348;28;20394;-72
2023/10/09 05:34:12;;;;;;;10.48;2.67;;;15.40;1.00;;;;;;5028524;28;20904;-72
2023/10/09 05:36:37;;;;;;;9.77;3.92;;;15.30;99.90;;;;;;5032534;28;20445;-72
2023/10/09 05:39:29;;;;;;;10.48;2.90;;;15.30;99.90;;;;;;5029828;28;20428;-72
2023/10/09 05:41:59;;;;;;;8.40;2.58;;;15.20;1.00;;;;;;5031701;28;20479;-72
2023/10/09 05:51:09;;;;;;;16.38;3.05;;;15.50;99.90;;;;;;5030844;28;20772;-72
2023/10/09 06:03:25;;;;;;;9.10;2.83;;;15.70;99.90;;;;;;5030119;28;20393;-72
2023/10/09 06:08:47;;;;;;;17.63;3.73;;;15.80;1.00;;;;;;5026609;28;20490;-71
2023/10/09 06:16:42;;;;;;;9.75;2.97;;;16.00;1.00;;;;;;5028546;28;20426;-71
2023/10/09 06:19:12;;;;;;;8.50;2.30;;;16.10;1.00;;;;;;5021154;28;20530;-71
2023/10/09 06:24:19;;;;;;;12.52;3.03;;;16.10;1.00;;;;;;5024751;28;20395;-71
2023/10/09 06:29:34;;;;;;;10.10;2.60;;;16.20;99.90;;;;;;5031854;28;20395;-71
2023/10/09 06:32:50;;;;;;;13.05;4.00;;;16.20;99.90;;;;;;5032813;28;20428;-71
2023/10/09 06:38:21;;;;;;;11.68;2.50;;;16.40;99.90;;;;;;5032017;28;20411;-71
2023/10/09 06:43:16;;;;;;;16.40;3.93;;;16.40;99.90;;;;;;5031838;28;20406;-72
2023/10/09 06:45:45;;;;;;;26.27;3.40;;;16.40;99.90;;;;;;5030329;28;20407;-72
2023/10/09 06:51:40;;;;;;;13.17;2.90;;;16.40;99.90;;;;;;5032145;28;20389;-71
2023/10/09 06:54:06;;;;;;;17.80;3.22;;;16.40;99.90;;;;;;5031693;28;20461;-71
2023/10/09 06:59:24;;;;;;;10.20;2.80;;;16.60;99.90;;;;;;5031681;28;20869;-71
2023/10/09 07:07:02;;;;;;;9.57;2.80;;;16.50;99.90;;;;;;5031413;28;20430;-71
2023/10/09 07:09:42;;;;;;;10.25;2.95;;;16.80;95.20;;;;;;5031782;28;20542;-73
2023/10/09 07:12:25;;;;;;;10.98;3.17;;;16.90;99.90;;;;;;5031497;28;20403;-71
2023/10/09 07:20:36;;;;;;;10.15;3.60;;;17.40;99.90;;;;;;5010549;28;20782;-73
2023/10/09 07:23:14;;;;;;;17.13;2.63;;;17.60;99.90;;;;;;5013599;28;20408;-73
2023/10/09 07:25:41;;;;;;;7.60;2.10;;;17.60;99.90;;;;;;5013363;28;20388;-73
2023/10/09 07:28:18;;;;;;;12.00;2.40;;;17.60;1.00;;;;;;5010720;28;20396;-73
2023/10/09 07:30:45;;;;;;;9.38;2.90;;;17.80;1.00;;;;;;5011230;28;20827;-73
2023/10/09 07:38:55;;;;;;;12.98;2.30;;;18.50;1.00;;;;;;5011299;28;20400;-73
2023/10/09 07:43:45;;;;;;;10.43;3.00;;;18.60;1.00;;;;;;5010842;28;20401;-73
2023/10/09 07:46:32;;;;;;;9.70;2.20;;;18.50;1.00;;;;;;5011173;28;20431;-73
2023/10/09 07:49:24;;;;;;;11.40;2.60;;;18.30;1.00;;;;;;5011277;28;20405;-73
2023/10/09 07:51:52;;;;;;;9.88;3.22;;;18.30;1.00;;;;;;5010724;28;20821;-73
2023/10/09 07:54:31;;;;;;;13.40;2.88;;;18.20;99.90;;;;;;5010913;28;20431;-73
2023/10/09 07:57:08;;;;;;;9.80;3.00;;;18.20;99.90;;;;;;5011234;28;20397;-73
2023/10/09 07:59:40;;;;;;;10.93;2.78;;;18.40;99.90;;;;;;5010283;28;20447;-73
2023/10/09 08:02:13;;;;;;;8.80;2.95;;;18.60;58.00;;;;;;5010658;28;20393;-73
2023/10/09 08:04:47;;;;;;;7.38;2.50;;;18.80;11.00;;;;;;5010086;28;20413;-73
2023/10/09 08:07:25;;;;;;;9.23;2.80;;;19.00;1.00;;;;;;5010642;28;20735;-73
2023/10/09 08:12:39;;;;;;;12.93;3.10;;;19.30;1.00;;;;;;5020656;28;20392;-73
2023/10/09 08:17:58;;;;;;;10.20;2.70;;;19.50;1.00;;;;;;5040067;28;20399;-73
2023/10/09 08:20:36;;;;;;;10.32;3.38;;;19.60;1.00;;;;;;5040240;28;20994;-73
2023/10/09 08:23:04;;;;;;;13.68;3.22;;;19.70;1.00;;;;;;5040847;28;20458;-73
2023/10/09 08:25:33;;;;;;;17.00;3.20;;;19.80;1.00;;;;;;5040405;28;20391;-73
2023/10/09 08:36:01;;;;;;;11.38;2.60;;;20.00;1.00;;;;;;5030312;28;20404;-71
2023/10/09 08:38:26;;;;;;;17.17;4.32;;;20.00;1.00;;;;;;5030583;28;20398;-71
2023/10/09 08:40:58;;;;;;;10.55;2.70;;;20.00;1.00;;;;;;5027626;28;21187;-71
2023/10/09 08:43:23;;;;;;;12.00;2.80;;;20.10;1.00;;;;;;5029370;28;20387;-71
2023/10/09 08:45:53;;;;;;;12.47;2.87;;;20.20;1.00;;;;;;5029752;28;20486;-71
2023/10/09 08:48:22;;;;;;;14.90;2.85;;;20.20;1.00;;;;;;5030053;28;20768;-71
2023/10/09 08:50:49;;;;;;;12.07;2.70;;;20.30;1.00;;;;;;5029746;28;20400;-71
2023/10/09 08:53:16;;;;;;;14.20;2.80;;;20.50;1.00;;;;;;5029658;28;20387;-72
2023/10/09 08:55:43;;;;;;;11.35;3.17;;;20.60;1.00;;;;;;5029506;28;20387;-72
2023/10/09 08:58:20;;;;;;;7.00;2.40;;;20.80;1.00;;;;;;5029625;28;20388;-72
2023/10/09 09:00:47;;;;;;;9.30;3.20;;;20.80;1.00;;;;;;5028073;28;20992;-72
2023/10/09 09:03:17;;;;;;;12.15;2.67;;;20.90;1.00;;;;;;5029633;28;20423;-72
2023/10/09 09:05:51;;;;;;;11.30;3.20;;;21.00;1.00;;;;;;5029713;28;20409;-72
2023/10/09 09:08:28;;;;;;;13.40;3.20;;;20.90;1.00;;;;;;5030151;28;20489;-71
2023/10/09 09:11:22;;;;;;;11.48;2.88;;;21.00;1.00;;;;;;5029608;28;20430;-71
2023/10/09 09:14:04;;;;;;;17.20;5.15;;;21.20;1.00;;;;;;5030104;28;20466;-71
2023/10/09 09:16:30;;;;;;;14.95;3.50;;;21.10;1.00;;;;;;5021234;28;20401;-71
2023/10/09 09:21:47;;;;;;;11.13;2.85;;;21.20;1.00;;;;;;5009726;28;20473;-71
2023/10/09 09:26:46;;;;;;;11.38;3.45;;;21.60;1.00;;;;;;5009661;28;20415;-71
2023/10/09 09:29:18;;;;;;;16.95;3.03;;;21.70;1.00;;;;;;5009441;28;20384;-72
2023/10/09 09:32:15;;;;;;;16.57;2.97;;;21.80;1.00;;;;;;5009589;28;20400;-72
2023/10/09 09:34:57;;;;;;;10.82;2.50;;;21.90;1.00;;;;;;5009627;28;20824;-71
2023/10/09 09:37:28;;;;;;;12.40;2.40;;;22.20;1.00;;;;;;5009594;28;20381;-72
2023/10/09 09:39:57;;;;;;;9.32;2.45;;;22.40;1.00;;;;;;5009164;28;20479;-72
2023/10/09 09:42:27;;;;;;;13.48;2.10;;;22.50;99.90;;;;;;5009891;28;20393;-73
2023/10/09 09:44:53;;;;;;;9.97;2.70;;;22.70;99.90;;;;;;5013432;28;20846;-73
2023/10/09 09:47:29;;;;;;;12.35;3.50;;;22.80;99.90;;;;;;5013262;28;20399;-73
2023/10/09 09:50:11;;;;;;;8.60;1.87;;;23.00;99.90;;;;;;5014802;28;20427;-73
2023/10/09 09:52:40;;;;;;;8.65;2.38;;;23.00;99.90;;;;;;5013610;28;21175;-74
2023/10/09 09:55:16;;;;;;;11.90;2.30;;;23.30;99.90;;;;;;5013061;28;20794;-74
2023/10/09 09:57:45;;;;;;;10.45;1.65;;;23.50;99.90;;;;;;5012997;28;20466;-74
2023/10/09 10:00:28;;;;;;;7.80;1.90;;;23.90;99.90;;;;;;5012807;28;20420;-74
2023/10/09 10:02:58;;;;;;;14.13;2.10;;;24.10;99.90;;;;;;5012799;28;20411;-74
2023/10/09 10:05:29;;;;;;;9.60;2.28;;;24.10;99.90;;;;;;5012427;28;20448;-74
2023/10/09 10:07:57;;;;;;;8.35;2.40;;;24.10;99.90;;;;;;5012507;28;20401;-74
2023/10/09 10:11:04;;;;;;;8.48;1.90;;;24.40;99.90;;;;;;5012913;28;20397;-74
2023/10/09 10:13:45;;;;;;;12.25;2.85;;;24.60;99.90;;;;;;5013366;28;20424;-74
2023/10/09 10:21:50;;;;;;;9.23;2.37;;;24.60;99.90;;;;;;5031514;28;20490;-74
2023/10/09 10:24:30;;;;;;;9.10;2.00;;;24.80;99.90;;;;;;5032344;28;20383;-74
2023/10/09 10:27:24;;;;;;;8.95;1.75;;;25.10;99.90;;;;;;5032618;28;20908;-74
2023/10/09 10:30:18;;;;;;;16.95;2.97;;;25.40;99.90;;;;;;5032302;28;20423;-74
2023/10/09 10:33:09;;;;;;;16.50;2.53;;;25.50;99.90;;;;;;5032115;28;20820;-74
2023/10/09 10:35:45;;;;;;;9.80;2.40;;;25.40;99.90;;;;;;5030584;28;20415;-75
2023/10/09 10:38:36;;;;;;;7.57;1.90;;;25.30;99.90;;;;;;5030802;28;20865;-74
2023/10/09 10:41:17;;;;;;;13.55;2.25;;;25.10;99.90;;;;;;5031825;28;20521;-74
2023/10/09 10:46:37;;;;;;;6.50;1.90;;;25.10;99.90;;;;;;5031937;28;20395;-74
2023/10/09 10:49:21;;;;;;;13.73;2.28;;;25.10;99.90;;;;;;5031917;28;20395;-73
2023/10/09 10:52:15;;;;;;;15.30;2.85;;;25.20;99.90;;;;;;5031560;28;20422;-74
2023/10/09 10:57:19;;;;;;;10.57;2.50;;;25.20;99.90;;;;;;5031472;28;20398;-74
2023/10/09 10:59:45;;;;;;;19.17;2.30;;;25.00;99.90;;;;;;5031523;28;20411;-74
2023/10/09 11:04:39;;;;;;;8.17;2.53;;;24.80;99.90;;;;;;5031494;28;20420;-74
2023/10/09 11:12:39;;;;;;;10.50;1.50;;;25.40;99.90;;;;;;5030963;28;20815;-74
2023/10/09 11:15:37;;;;;;;10.20;2.15;;;25.90;99.90;;;;;;5029465;28;20395;-72
2023/10/09 11:18:07;;;;;;;11.05;1.55;;;26.20;99.90;;;;;;5028459;28;21015;-72
2023/10/09 11:20:38;;;;;;;10.05;1.95;;;26.50;99.90;;;;;;5029845;28;20920;-72
2023/10/09 11:25:50;;;;;;;11.60;1.80;;;26.20;99.90;;;;;;5030774;28;20482;-72
2023/10/09 11:28:29;;;;;;;8.60;2.20;;;26.20;99.90;;;;;;5047078;28;20389;-72
2023/10/09 11:31:16;;;;;;;8.43;2.33;;;25.60;99.90;;;;;;5051239;28;20893;-72
2023/10/09 11:33:52;;;;;;;10.18;1.77;;;25.30;99.90;;;;;;5049189;28;20770;-73
2023/10/09 11:36:29;;;;;;;10.23;2.30;;;25.00;99.90;;;;;;5049197;28;20396;-73
2023/10/09 11:39:12;;;;;;;9.18;2.40;;;24.80;99.90;;;;;;5045499;28;20403;-73
2023/10/09 11:41:41;;;;;;;6.50;1.92;;;24.60;99.90;;;;;;5029479;28;20437;-73
2023/10/09 11:44:06;;;;;;;11.35;2.22;;;24.40;99.90;;;;;;5029712;28;20391;-73
2023/10/09 11:46:50;;;;;;;10.10;2.20;;;24.50;99.90;;;;;;5028730;28;20415;-73
2023/10/09 11:54:33;;;;;;;7.07;1.95;;;24.60;99.90;;;;;;5030327;28;20394;-73
2023/10/09 11:57:01;;;;;;;11.60;1.70;;;24.50;99.90;;;;;;5030632;28;20418;-73
2023/10/09 11:59:27;;;;;;;10.20;2.40;;;24.60;99.90;;;;;;5031151;28;20406;-73
2023/10/09 12:01:54;;;;;;;7.25;2.42;;;24.70;99.90;;;;;;5029937;28;20473;-73
2023/10/09 12:04:30;;;;;;;8.82;1.90;;;24.80;99.90;;;;;;5029709;28;20888;-73
2023/10/09 12:07:06;;;;;;;12.48;2.50;;;24.90;99.90;;;;;;5029829;28;20791;-73
2023/10/09 12:09:34;;;;;;;11.55;2.97;;;25.00;99.90;;;;;;5029284;28;20461;-73
2023/10/09 12:12:04;;;;;;;15.93;2.58;;;25.10;99.90;;;;;;5030468;28;20458;-73
2023/10/09 12:14:37;;;;;;;8.90;2.20;;;25.40;99.90;;;;;;5030891;28;20411;-73
2023/10/09 12:17:07;;;;;;;14.02;2.85;;;25.40;99.90;;;;;;5028776;28;20425;-73
2023/10/09 12:19:37;;;;;;;17.48;1.70;;;25.50;99.90;;;;;;5031868;28;20399;-74
2023/10/09 12:22:15;;;;;;;12.20;2.58;;;25.70;99.90;;;;;;5029339;28;20770;-72
2023/10/09 12:24:43;;;;;;;13.95;2.97;;;25.90;99.90;;;;;;5010030;28;20396;-72
2023/10/09 12:27:11;;;;;;;8.50;1.90;;;26.00;99.90;;;;;;5017383;28;20391;-71
2023/10/09 12:29:37;;;;;;;16.02;2.85;;;26.20;99.90;;;;;;5041465;28;20390;-72
2023/10/09 12:32:03;;;;;;;11.70;3.37;;;26.20;99.90;;;;;;5049240;28;20944;-73
2023/10/09 12:34:30;;;;;;;18.85;3.03;;;26.00;99.90;;;;;;5038245;28;20465;-73
2023/10/09 12:37:03;;;;;;;15.75;2.60;;;26.00;99.90;;;;;;5049184;28;20902;-72
2023/10/09 12:39:33;;;;;;;15.10;2.92;;;25.90;99.90;;;;;;5029309;28;20912;-73
2023/10/09 12:42:08;;;;;;;10.15;2.55;;;26.00;99.90;;;;;;5036831;28;20385;-72
2023/10/09 12:44:38;;;;;;;10.18;2.10;;;26.00;99.90;;;;;;5049199;28;20468;-72
2023/10/09 12:47:05;;;;;;;16.10;2.42;;;26.10;99.90;;;;;;5048081;28;20827;-72
2023/10/09 12:49:30;;;;;;;9.20;2.10;;;26.20;99.90;;;;;;5049426;28;20393;-73
2023/10/09 12:51:59;;;;;;;12.75;2.58;;;26.00;99.90;;;;;;5049997;28;20451;-72
2023/10/09 12:54:27;;;;;;;10.50;1.87;;;25.80;99.90;;;;;;5049006;28;20786;-72
2023/10/09 12:56:54;;;;;;;8.10;2.10;;;25.70;99.90;;;;;;5034511;28;20383;-72
2023/10/09 12:59:20;;;;;;;8.80;1.92;;;25.70;99.90;;;;;;5029004;28;20395;-72
2023/10/09 13:01:51;;;;;;;8.57;2.08;;;25.60;99.90;;;;;;5028583;28;20405;-72
2023/10/09 13:04:17;;;;;;;12.00;2.20;;;25.60;99.90;;;;;;5035399;28;20386;-72
2023/10/09 13:06:46;;;;;;;11.00;2.85;;;25.80;99.90;;;;;;5048910;28;20516;-72
2023/10/09 13:09:13;;;;;;;14.98;2.45;;;25.80;99.90;;;;;;5033828;28;20470;-72
2023/10/09 13:11:43;;;;;;;12.77;2.97;;;25.90;99.90;;;;;;5029114;28;20461;-72
2023/10/09 13:14:16;;;;;;;10.13;2.10;;;26.10;99.90;;;;;;5027854;28;20395;-72
2023/10/09 13:16:42;;;;;;;12.27;2.35;;;26.50;99.90;;;;;;5029805;28;20395;-72
2023/10/09 13:19:10;;;;;;;10.63;2.78;;;26.90;99.90;;;;;;5033033;28;20908;-72
2023/10/09 13:21:39;;;;;;;11.07;2.53;;;26.90;99.90;;;;;;5048010;28;20490;-72
2023/10/09 13:24:12;;;;;;;7.80;1.90;;;27.00;99.90;;;;;;5037024;28;20912;-72
2023/10/09 13:26:38;;;;;;;8.23;1.95;;;27.30;99.90;;;;;;5032043;28;20927;-72
2023/10/09 13:29:04;;;;;;;8.48;2.50;;;27.40;99.90;;;;;;5043405;28;20389;-72
2023/10/09 13:31:34;;;;;;;9.38;2.38;;;27.50;99.90;;;;;;5053087;28;20408;-72
2023/10/09 13:34:00;;;;;;;10.93;2.85;;;27.20;99.90;;;;;;5034733;28;20405;-72
2023/10/09 13:36:26;;;;;;;17.92;3.10;;;27.30;99.90;;;;;;5033297;28;20465;-72
2023/10/09 13:38:56;;;;;;;10.27;3.40;;;27.30;99.90;;;;;;5031361;28;20407;-72
2023/10/09 13:41:25;;;;;;;12.68;2.80;;;27.00;99.90;;;;;;5032793;28;20911;-72
2023/10/09 13:43:51;;;;;;;11.65;2.88;;;26.80;99.90;;;;;;5030142;28;20757;-72
2023/10/09 13:46:17;;;;;;;7.60;2.30;;;27.10;99.90;;;;;;5039337;28;20449;-72
2023/10/09 13:48:45;;;;;;;11.23;2.90;;;27.40;99.90;;;;;;5048167;28;20452;-72
2023/10/09 13:51:17;;;;;;;10.38;2.58;;;27.60;99.90;;;;;;5037954;28;20397;-72
2023/10/09 13:53:47;;;;;;;15.25;3.42;;;27.50;99.90;;;;;;5043805;28;20445;-72
2023/10/09 13:56:19;;;;;;;8.80;2.85;;;27.10;99.90;;;;;;5039399;28;20485;-72
2023/10/09 13:58:50;;;;;;;10.45;2.47;;;27.30;99.90;;;;;;5040155;28;20726;-72
2023/10/09 14:01:26;;;;;;;12.95;3.05;;;27.70;99.90;;;;;;5033380;28;20517;-72
2023/10/09 14:03:59;;;;;;;11.07;3.72;;;27.90;99.90;;;;;;5033968;28;20540;-72
2023/10/09 14:06:31;;;;;;;13.15;2.90;;;28.10;99.90;;;;;;5046967;28;20456;-72
2023/10/09 14:09:05;;;;;;;10.10;3.30;;;27.90;99.90;;;;;;5035447;28;20975;-72
2023/10/09 14:11:37;;;;;;;12.75;3.60;;;27.80;99.90;;;;;;5044471;28;20797;-72
2023/10/09 14:14:12;;;;;;;11.83;3.13;;;27.60;99.90;;;;;;5043269;28;20528;-72
2023/10/09 14:16:42;;;;;;;12.55;3.00;;;27.30;99.90;;;;;;5034738;28;20399;-72
2023/10/09 14:19:12;;;;;;;11.10;2.50;;;27.00;99.90;;;;;;5035149;28;20426;-72
2023/10/09 14:21:40;;;;;;;10.88;2.92;;;26.90;99.90;;;;;;5045877;28;21187;-72
2023/10/09 14:24:15;;;;;;;9.60;2.60;;;26.80;99.90;;;;;;5034634;28;20487;-72
2023/10/09 14:26:41;;;;;;;10.70;2.40;;;26.80;99.90;;;;;;5045240;28;20465;-72
2023/10/09 14:29:07;;;;;;;13.50;2.72;;;26.80;99.90;;;;;;5040129;28;20891;-72
2023/10/09 14:31:38;;;;;;;11.95;3.10;;;26.70;99.90;;;;;;5037401;28;20403;-72
2023/10/09 14:34:05;;;;;;;10.52;2.95;;;26.70;99.90;;;;;;5048218;28;20381;-72
2023/10/09 14:36:34;;;;;;;12.02;3.20;;;26.50;99.90;;;;;;5035533;28;20433;-72
2023/10/09 14:39:00;;;;;;;11.70;3.50;;;26.40;99.90;;;;;;5036490;28;20398;-72
2023/10/09 14:41:27;;;;;;;8.98;2.42;;;26.30;99.90;;;;;;5036474;28;20860;-72
2023/10/09 14:43:53;;;;;;;9.73;2.60;;;26.40;99.90;;;;;;5034749;28;20387;-72
2023/10/09 14:46:27;;;;;;;13.25;3.00;;;26.40;99.90;;;;;;5041656;28;20393;-72
2023/10/09 14:48:53;;;;;;;9.70;2.60;;;26.50;99.90;;;;;;5042059;28;20390;-72
2023/10/09 14:51:29;;;;;;;13.20;3.33;;;26.50;99.90;;;;;;5042504;28;20854;-72
2023/10/09 14:53:58;;;;;;;11.83;2.70;;;26.50;99.90;;;;;;5047822;28;20783;-72
2023/10/09 14:56:30;;;;;;;9.10;2.58;;;26.40;99.90;;;;;;5015567;28;20403;-72
2023/10/09 14:59:00;;;;;;;10.10;3.90;;;26.30;99.90;;;;;;5037873;28;20906;-72
2023/10/09 15:01:30;;;;;;;12.25;3.97;;;26.20;99.90;;;;;;5038898;28;20506;-73
2023/10/09 15:03:59;;;;;;;11.18;2.75;;;26.20;99.90;;;;;;5031128;28;20417;-73
2023/10/09 15:06:30;;;;;;;14.68;3.00;;;26.10;99.90;;;;;;5018628;28;20418;-73
2023/10/09 15:08:56;;;;;;;9.55;2.70;;;25.90;99.90;;;;;;5041088;28;20407;-73
2023/10/09 15:11:25;;;;;;;12.07;2.50;;;25.90;99.90;;;;;;5041309;28;20484;-73
2023/10/09 15:13:52;;;;;;;7.20;2.25;;;25.80;99.90;;;;;;5035244;28;20394;-73
2023/10/09 15:16:18;;;;;;;9.63;2.50;;;25.80;99.90;;;;;;5034507;28;20393;-73
2023/10/09 15:18:43;;;;;;;10.68;2.60;;;25.80;99.90;;;;;;5042753;28;20395;-73
2023/10/09 15:21:09;;;;;;;10.57;2.73;;;25.80;99.90;;;;;;5040614;28;20471;-73
2023/10/09 15:23:36;;;;;;;10.53;2.80;;;25.80;99.90;;;;;;5037081;28;20398;-73
2023/10/09 15:26:01;;;;;;;12.33;2.67;;;25.70;99.90;;;;;;5043815;28;20899;-73
2023/10/09 15:28:32;;;;;;;16.57;3.10;;;25.60;99.90;;;;;;5046003;28;20398;-73
2023/10/09 15:30:58;;;;;;;9.50;2.80;;;25.70;99.90;;;;;;5042113;28;20736;-73
2023/10/09 15:33:26;;;;;;;9.40;3.20;;;25.80;99.90;;;;;;5038447;28;20441;-73
2023/10/09 15:35:51;;;;;;;8.55;2.72;;;25.70;99.90;;;;;;5045981;28;20948;-73
2023/10/09 15:38:17;;;;;;;12.18;3.10;;;25.60;99.90;;;;;;5031485;28;20407;-73